Clear Creek, Kentucky
Current Conditions -  °F | °C
As of 7:55 AM on Sunday 23 Nov 2014 (Local Time) from K1A6 Reporting Station
Overcast Overcast  
Wind Chill: 47°   Ceiling: 7000
Heat Index: 47°   Visibility: 10mi
Dew Point: 36°   Wind: 3mph
Humidity: 66%   Direction: 260°W
Pressure: 30.06"   Gusts: NA
Location:  36.7417°N, 83.6911°W
Report Text: K1A6 231255Z AUTO 26003KT 10SM SCT060 BKN070 OVC095 08/02 A3006 RMK AO2 T00820022
Loading
Personal Weather Stations






























Interactive Weather Map New forecast layout! Learn more

10-Day Weather Forecast

Advertisements
Track Severe Weather on mobile